Kampong Chhnang Airport


Codes: VDKH/KZC
Name: Kampong Chhnang Airport
City: Kampong Chhnang
Country: Cambodia
Elevation: 56 ft.
Wikipedia:

Photos at Kampong Chhnang Airport


   Photos courtesy of SpottingLog. You can add your own sightings and photos by signing up for a free trial today.



No photos found.

Weather at Kampong Chhnang Airport


Time (UTC)DescriptionTempratureWindCloud coverageVisibilityPressureHumidity
19-Apr-2024 03:00Clear Sky36°C11 mph, S0%10000m1008hPa38%
19-Apr-2024 06:00Clear Sky38°C11 mph, SE1%10000m1007hPa33%
19-Apr-2024 09:00Few Clouds40°C9 mph, SE21%10000m1003hPa26%
19-Apr-2024 12:00Broken Clouds35°C7 mph, SW66%10000m1002hPa38%
19-Apr-2024 15:00Few Clouds30°C4 mph, S21%10000m1004hPa58%
19-Apr-2024 18:00Few Clouds28°C16 mph, S22%10000m1005hPa69%
19-Apr-2024 21:00Broken Clouds27°C11 mph, S84%10000m1005hPa77%
20-Apr-2024 00:00Overcast Clouds28°C13 mph, S85%10000m1008hPa72%
20-Apr-2024 03:00Few Clouds36°C11 mph, S23%10000m1008hPa40%
20-Apr-2024 06:00Few Clouds40°C11 mph, S15%10000m1004hPa28%
20-Apr-2024 09:00Scattered Clouds41°C11 mph, SE45%10000m1000hPa23%
20-Apr-2024 12:00Broken Clouds35°C11 mph, S77%10000m1003hPa37%
20-Apr-2024 15:00Broken Clouds31°C7 mph, S75%10000m1005hPa55%
20-Apr-2024 18:00Broken Clouds28°C13 mph, S73%10000m1005hPa67%
20-Apr-2024 21:00Scattered Clouds27°C13 mph, S40%10000m1005hPa76%
21-Apr-2024 00:00Broken Clouds28°C13 mph, S60%10000m1008hPa70%
21-Apr-2024 03:00Broken Clouds36°C11 mph, S61%10000m1009hPa37%
21-Apr-2024 06:00Broken Clouds40°C9 mph, S75%10000m1005hPa27%
21-Apr-2024 09:00Overcast Clouds41°C9 mph, SE100%10000m1002hPa22%
21-Apr-2024 12:00Overcast Clouds35°C16 mph, S100%10000m1004hPa34%
21-Apr-2024 15:00Overcast Clouds30°C9 mph, S92%10000m1005hPa58%
21-Apr-2024 18:00Broken Clouds28°C11 mph, SE79%10000m1005hPa67%
21-Apr-2024 21:00Overcast Clouds26°C11 mph, S100%10000m1005hPa72%
22-Apr-2024 00:00Overcast Clouds28°C9 mph, SE100%10000m1007hPa66%
22-Apr-2024 03:00Overcast Clouds36°C9 mph, S99%10000m1008hPa35%
22-Apr-2024 06:00Overcast Clouds41°C7 mph, SE98%10000m1004hPa24%
22-Apr-2024 09:00Overcast Clouds42°C9 mph, SE98%10000m1001hPa21%
22-Apr-2024 12:00Overcast Clouds36°C16 mph, S100%10000m1003hPa33%
22-Apr-2024 15:00Overcast Clouds31°C9 mph, SW99%10000m1005hPa60%
22-Apr-2024 18:00Overcast Clouds29°C11 mph, SE100%10000m1005hPa72%
22-Apr-2024 21:00Overcast Clouds27°C11 mph, SE100%10000m1005hPa82%
23-Apr-2024 00:00Overcast Clouds28°C13 mph, S100%10000m1007hPa76%
23-Apr-2024 03:00Overcast Clouds37°C9 mph, S100%10000m1007hPa39%
23-Apr-2024 06:00Overcast Clouds42°C4 mph, SE95%10000m1003hPa25%
23-Apr-2024 09:00Broken Clouds41°C4 mph, NW74%10000m1000hPa25%
23-Apr-2024 12:00Light Rain32°C9 mph, S89%10000m1003hPa53%
23-Apr-2024 15:00Overcast Clouds31°C13 mph, S98%10000m1006hPa58%
23-Apr-2024 18:00Overcast Clouds29°C9 mph, SE99%10000m1006hPa66%
23-Apr-2024 21:00Overcast Clouds28°C11 mph, SE100%10000m1006hPa76%
24-Apr-2024 00:00Overcast Clouds29°C13 mph, S97%10000m1007hPa74%